createdAt,value
2024-01-17T00:00:03.834Z,31.90
2024-01-17T00:00:31.031Z,31.90
2024-01-17T00:01:01.669Z,31.90
2024-01-17T00:01:32.384Z,32.00
2024-01-17T00:02:03.081Z,32.00
2024-01-17T00:02:33.757Z,31.90
2024-01-17T00:03:04.484Z,31.80
2024-01-17T00:03:35.142Z,32.00
2024-01-17T00:04:05.784Z,32.00
2024-01-17T00:04:36.458Z,32.00
2024-01-17T00:05:07.111Z,31.90
2024-01-17T00:05:37.761Z,31.80
2024-01-17T00:06:08.482Z,32.00
2024-01-17T00:06:39.249Z,32.00
2024-01-17T00:07:10.007Z,32.00
2024-01-17T00:07:40.661Z,31.90
2024-01-17T00:08:11.345Z,31.90
2024-01-17T00:08:41.987Z,31.90
2024-01-17T00:09:12.655Z,32.00
2024-01-17T00:09:43.288Z,32.00
2024-01-17T00:10:13.926Z,32.00
2024-01-17T00:10:44.573Z,32.00
2024-01-17T00:11:15.212Z,32.00
2024-01-17T00:11:45.884Z,32.00
2024-01-17T00:12:16.639Z,32.00
2024-01-17T00:12:47.282Z,32.00
2024-01-17T00:13:17.936Z,32.00
2024-01-17T00:13:48.600Z,31.90
2024-01-17T00:14:19.226Z,31.90
2024-01-17T00:14:49.903Z,31.90
2024-01-17T00:15:20.531Z,32.00
2024-01-17T00:15:51.150Z,31.90
2024-01-17T00:16:21.806Z,32.00
2024-01-17T00:16:52.446Z,32.00
2024-01-17T00:17:23.199Z,31.90
2024-01-17T00:17:53.952Z,32.00
2024-01-17T00:18:24.666Z,31.90
2024-01-17T00:18:55.435Z,31.90
2024-01-17T00:19:26.170Z,32.00
2024-01-17T00:19:56.819Z,32.00
2024-01-17T00:20:27.471Z,32.10
2024-01-17T00:20:58.111Z,32.10
2024-01-17T00:21:28.770Z,32.00
2024-01-17T00:21:59.444Z,32.00
2024-01-17T00:22:30.139Z,32.00
2024-01-17T00:23:00.795Z,32.00
2024-01-17T00:23:31.446Z,32.00
2024-01-17T00:24:02.129Z,32.00
2024-01-17T00:24:32.744Z,32.10
2024-01-17T00:25:03.412Z,32.00
2024-01-17T00:25:34.030Z,31.90
2024-01-17T00:26:04.699Z,31.90
2024-01-17T00:26:35.376Z,32.00
2024-01-17T00:27:06.019Z,31.90
2024-01-17T00:27:36.681Z,32.00
2024-01-17T00:28:07.352Z,31.90
2024-01-17T00:28:38.001Z,31.80
2024-01-17T00:29:08.654Z,31.90
2024-01-17T00:29:39.381Z,31.90
2024-01-17T00:30:10.163Z,31.90
2024-01-17T00:30:40.985Z,32.00
2024-01-17T00:31:11.607Z,31.90
2024-01-17T00:31:42.250Z,31.90
2024-01-17T00:32:12.905Z,31.90
2024-01-17T00:32:43.682Z,31.90
2024-01-17T00:33:14.423Z,31.90
2024-01-17T00:33:45.171Z,32.00
2024-01-17T00:34:15.952Z,31.90
2024-01-17T00:34:46.703Z,31.90
2024-01-17T00:35:17.311Z,31.80
2024-01-17T00:35:48.046Z,32.00
2024-01-17T00:36:18.677Z,31.90
2024-01-17T00:36:49.333Z,31.90
2024-01-17T00:37:20.074Z,31.90
2024-01-17T00:37:50.751Z,31.90
2024-01-17T00:38:21.392Z,31.90
2024-01-17T00:38:52.084Z,32.00
2024-01-17T00:39:22.718Z,32.00
2024-01-17T00:39:53.373Z,32.00
2024-01-17T00:40:24.019Z,32.00
2024-01-17T00:40:54.656Z,31.90
2024-01-17T00:41:25.373Z,31.90
2024-01-17T00:41:56.026Z,32.00
2024-01-17T00:42:26.628Z,31.90
2024-01-17T00:42:57.338Z,32.00
2024-01-17T00:43:27.974Z,31.90
2024-01-17T00:43:58.645Z,31.90
2024-01-17T00:44:29.404Z,31.90
2024-01-17T00:45:00.128Z,31.90
2024-01-17T00:45:30.792Z,32.00
2024-01-17T00:46:01.426Z,31.90
2024-01-17T00:46:32.047Z,31.90
2024-01-17T00:47:02.788Z,31.90
2024-01-17T00:47:33.537Z,31.90
2024-01-17T00:48:04.307Z,32.00
2024-01-17T00:48:35.059Z,31.90
2024-01-17T00:49:05.805Z,31.90
2024-01-17T00:49:36.464Z,31.80
2024-01-17T00:50:07.081Z,31.90
2024-01-17T00:50:37.761Z,31.80
2024-01-17T00:51:08.453Z,31.90
2024-01-17T00:51:39.083Z,31.90
2024-01-17T00:52:09.795Z,31.80
2024-01-17T00:52:40.548Z,31.80
2024-01-17T00:53:11.210Z,31.90
2024-01-17T00:53:41.941Z,31.90
2024-01-17T00:54:12.567Z,32.00
2024-01-17T00:54:43.206Z,31.80
2024-01-17T00:55:13.886Z,31.90
2024-01-17T00:55:44.500Z,31.80
2024-01-17T00:56:15.160Z,32.00
2024-01-17T00:56:45.838Z,32.00
2024-01-17T00:57:16.454Z,31.80
2024-01-17T00:57:47.101Z,31.90
2024-01-17T00:58:17.785Z,32.00
2024-01-17T00:58:48.426Z,31.80
2024-01-17T00:59:19.071Z,31.80
2024-01-17T00:59:49.788Z,31.90
2024-01-17T01:00:20.401Z,31.90
2024-01-17T01:00:51.091Z,31.80
2024-01-17T01:01:21.763Z,31.80
2024-01-17T01:01:52.370Z,32.00
2024-01-17T01:02:23.042Z,32.00
2024-01-17T01:02:53.722Z,31.90
2024-01-17T01:03:24.516Z,31.80
2024-01-17T01:03:55.179Z,31.90
2024-01-17T01:04:25.809Z,32.00
2024-01-17T01:04:56.453Z,32.00
2024-01-17T01:05:27.143Z,31.90
2024-01-17T01:05:57.820Z,31.90
2024-01-17T01:06:28.508Z,31.90
2024-01-17T01:06:59.135Z,32.00
2024-01-17T01:07:29.779Z,32.00
2024-01-17T01:08:00.451Z,32.00
2024-01-17T01:08:31.132Z,31.90
2024-01-17T01:09:01.865Z,31.90
2024-01-17T01:09:32.564Z,31.90
2024-01-17T01:10:03.251Z,31.90
2024-01-17T01:10:33.892Z,32.00
2024-01-17T01:11:04.545Z,31.90
2024-01-17T01:11:35.237Z,31.90
2024-01-17T01:12:05.970Z,32.00
2024-01-17T01:12:36.632Z,31.90
2024-01-17T01:13:07.280Z,31.90
2024-01-17T01:13:37.965Z,32.10
2024-01-17T01:14:08.651Z,32.00
2024-01-17T01:14:39.328Z,31.90
2024-01-17T01:15:10.018Z,32.00
2024-01-17T01:15:40.620Z,31.90
2024-01-17T01:16:11.295Z,32.00
2024-01-17T01:16:41.972Z,31.90
2024-01-17T01:17:12.585Z,31.90
2024-01-17T01:17:43.310Z,31.90
2024-01-17T01:18:14.057Z,31.90
2024-01-17T01:18:44.929Z,31.80
2024-01-17T01:19:15.801Z,31.80
2024-01-17T01:19:46.487Z,31.80
2024-01-17T01:20:17.093Z,31.90
2024-01-17T01:20:47.814Z,31.80
2024-01-17T01:21:18.427Z,32.00
2024-01-17T01:21:49.069Z,32.00
2024-01-17T01:22:19.762Z,32.10
2024-01-17T01:22:50.409Z,31.90
2024-01-17T01:23:21.058Z,32.00
2024-01-17T01:23:51.782Z,32.00
2024-01-17T01:24:22.413Z,31.90
2024-01-17T01:24:53.036Z,31.90
2024-01-17T01:25:23.683Z,31.90
2024-01-17T01:25:54.323Z,32.00
2024-01-17T01:26:25.015Z,32.00
2024-01-17T01:26:55.708Z,32.00
2024-01-17T01:27:26.335Z,31.90
2024-01-17T01:27:57.009Z,31.90
2024-01-17T01:28:27.718Z,32.00
2024-01-17T01:28:58.603Z,32.00
2024-01-17T01:29:29.267Z,32.00
2024-01-17T01:29:59.907Z,32.10
2024-01-17T01:30:30.632Z,32.10
2024-01-17T01:31:01.350Z,32.10
2024-01-17T01:31:31.972Z,32.10
2024-01-17T01:32:02.634Z,32.10
2024-01-17T01:32:33.331Z,32.00
2024-01-17T01:33:03.990Z,32.00
2024-01-17T01:33:34.839Z,32.00
2024-01-17T01:34:05.623Z,32.00
2024-01-17T01:34:36.283Z,32.00
2024-01-17T01:35:06.879Z,32.00
2024-01-17T01:35:37.592Z,32.00
2024-01-17T01:36:08.254Z,31.90
2024-01-17T01:36:38.930Z,32.00
2024-01-17T01:37:09.561Z,32.00
2024-01-17T01:37:40.218Z,32.00
2024-01-17T01:38:10.858Z,32.00
2024-01-17T01:38:41.524Z,32.00
2024-01-17T01:39:12.348Z,32.10
2024-01-17T01:39:42.965Z,32.00
2024-01-17T01:40:13.636Z,32.00
2024-01-17T01:40:44.301Z,32.00
2024-01-17T01:41:14.959Z,32.00
2024-01-17T01:41:45.704Z,32.10
2024-01-17T01:42:16.321Z,32.00
2024-01-17T01:42:46.959Z,32.00
2024-01-17T01:43:17.595Z,32.10
2024-01-17T01:43:48.250Z,32.00
2024-01-17T01:44:18.916Z,32.00
2024-01-17T01:44:49.602Z,32.00
2024-01-17T01:45:20.224Z,32.00
2024-01-17T01:45:50.880Z,32.10
2024-01-17T01:46:21.497Z,32.00
2024-01-17T01:46:52.162Z,32.00
2024-01-17T01:47:22.823Z,32.00
2024-01-17T01:47:53.606Z,32.00
2024-01-17T01:48:24.521Z,32.00
2024-01-17T01:48:55.340Z,32.00
2024-01-17T01:49:26.093Z,31.90
2024-01-17T01:49:56.740Z,32.00
2024-01-17T01:50:27.428Z,32.00
2024-01-17T01:50:58.205Z,31.90
2024-01-17T01:51:28.866Z,31.90
2024-01-17T01:51:59.509Z,32.00
2024-01-17T01:52:30.154Z,32.00
2024-01-17T01:53:00.812Z,32.00
2024-01-17T01:53:31.479Z,32.00
2024-01-17T01:54:02.291Z,32.00
2024-01-17T01:54:33.012Z,32.00
2024-01-17T01:55:03.660Z,31.90
2024-01-17T01:55:34.303Z,32.00
2024-01-17T01:56:04.931Z,32.00
2024-01-17T01:56:35.629Z,32.00
2024-01-17T01:57:06.323Z,32.00
2024-01-17T01:57:36.972Z,32.00
2024-01-17T01:58:07.617Z,32.00
2024-01-17T01:58:38.274Z,32.00
2024-01-17T01:59:08.932Z,32.00
2024-01-17T01:59:39.607Z,32.00
2024-01-17T02:00:10.308Z,32.00
2024-01-17T02:00:40.931Z,31.90
2024-01-17T02:01:11.623Z,32.00
2024-01-17T02:01:42.245Z,32.00
2024-01-17T02:02:12.887Z,31.90
2024-01-17T02:02:43.638Z,31.90
2024-01-17T02:03:14.380Z,31.90
2024-01-17T02:03:45.080Z,31.80
2024-01-17T02:04:15.716Z,31.90
2024-01-17T02:04:46.421Z,31.90
2024-01-17T02:05:17.136Z,31.90
2024-01-17T02:05:47.802Z,31.90
2024-01-17T02:06:18.567Z,31.90
2024-01-17T02:06:49.250Z,32.00
2024-01-17T02:07:19.914Z,31.90
2024-01-17T02:07:50.524Z,32.00
2024-01-17T02:08:21.204Z,32.00
2024-01-17T02:08:51.889Z,32.00
2024-01-17T02:09:22.502Z,32.00
2024-01-17T02:09:53.221Z,32.00
2024-01-17T02:10:23.860Z,32.00
2024-01-17T02:10:54.500Z,32.00
2024-01-17T02:11:25.216Z,32.00
2024-01-17T02:11:55.858Z,31.90
2024-01-17T02:12:26.488Z,32.00
2024-01-17T02:12:57.111Z,31.90
2024-01-17T02:13:27.758Z,32.00
2024-01-17T02:13:58.408Z,32.00
2024-01-17T02:14:29.096Z,32.00
2024-01-17T02:14:59.774Z,31.90
2024-01-17T02:15:30.372Z,32.00
2024-01-17T02:16:01.010Z,32.00
2024-01-17T02:16:31.651Z,32.00
2024-01-17T02:17:02.336Z,32.10
2024-01-17T02:17:33.051Z,32.10
2024-01-17T02:18:03.798Z,32.00
2024-01-17T02:18:34.640Z,32.00
2024-01-17T02:19:05.390Z,32.00
2024-01-17T02:19:36.035Z,32.00
2024-01-17T02:20:06.738Z,32.00
2024-01-17T02:20:37.427Z,32.00
2024-01-17T02:21:08.115Z,31.90
2024-01-17T02:21:38.745Z,32.00
2024-01-17T02:22:09.380Z,32.00
2024-01-17T02:22:40.033Z,32.00
2024-01-17T02:23:10.679Z,32.00
2024-01-17T02:23:41.361Z,32.00
2024-01-17T02:24:11.994Z,32.00
2024-01-17T02:24:42.599Z,32.00
2024-01-17T02:25:13.271Z,32.00
2024-01-17T02:25:43.921Z,32.00
2024-01-17T02:26:14.564Z,31.90
2024-01-17T02:26:45.239Z,32.00
2024-01-17T02:27:15.878Z,32.00
2024-01-17T02:27:46.515Z,32.00
2024-01-17T02:28:17.185Z,32.10
2024-01-17T02:28:47.814Z,32.00
2024-01-17T02:29:18.469Z,32.00
2024-01-17T02:29:49.231Z,32.00
2024-01-17T02:30:20.104Z,32.00
2024-01-17T02:30:50.890Z,31.90
2024-01-17T02:31:21.562Z,32.00
2024-01-17T02:31:52.339Z,32.00
2024-01-17T02:32:23.045Z,31.90
2024-01-17T02:32:53.803Z,32.00
2024-01-17T02:33:24.621Z,31.90
2024-01-17T02:33:55.480Z,31.90
2024-01-17T02:34:26.256Z,31.80
2024-01-17T02:34:56.933Z,31.90
2024-01-17T02:35:27.642Z,31.90
2024-01-17T02:35:58.259Z,32.00
2024-01-17T02:36:28.895Z,31.90
2024-01-17T02:36:59.555Z,32.00
2024-01-17T02:37:30.200Z,32.00
2024-01-17T02:38:00.869Z,32.00
2024-01-17T02:38:31.566Z,32.00
2024-01-17T02:39:02.247Z,32.00
2024-01-17T02:39:32.852Z,32.00
2024-01-17T02:40:03.515Z,31.90
2024-01-17T02:40:34.184Z,32.00
2024-01-17T02:41:04.833Z,32.00
2024-01-17T02:41:35.560Z,31.99
2024-01-17T02:42:06.203Z,32.00
2024-01-17T02:42:36.797Z,32.00
2024-01-17T02:43:07.462Z,31.99
2024-01-17T02:43:38.084Z,32.00
2024-01-17T02:44:08.738Z,31.99
2024-01-17T02:44:39.431Z,31.90
2024-01-17T02:45:10.133Z,31.88
2024-01-17T02:45:40.845Z,31.90
2024-01-17T02:46:11.480Z,32.00
2024-01-17T02:46:42.093Z,31.90
2024-01-17T02:47:12.756Z,31.90
2024-01-17T02:47:43.442Z,32.00
2024-01-17T02:48:14.172Z,32.00
2024-01-17T02:48:44.945Z,32.00
2024-01-17T02:49:15.760Z,32.00
2024-01-17T02:49:46.508Z,32.00
2024-01-17T02:50:17.174Z,32.00
2024-01-17T02:50:47.911Z,31.88
2024-01-17T02:51:18.523Z,31.88
2024-01-17T02:51:49.173Z,31.90
2024-01-17T02:52:19.859Z,31.90
2024-01-17T02:52:50.482Z,32.00
2024-01-17T02:53:21.139Z,31.99
2024-01-17T02:53:51.793Z,31.99
2024-01-17T02:54:22.420Z,31.99
2024-01-17T02:54:53.071Z,31.99
2024-01-17T02:55:23.712Z,31.88
2024-01-17T02:55:54.478Z,31.88
2024-01-17T02:56:25.158Z,31.99
2024-01-17T02:56:55.838Z,31.99
2024-01-17T02:57:26.457Z,31.99
2024-01-17T02:57:57.113Z,31.99
2024-01-17T02:58:27.766Z,31.88
2024-01-17T02:58:58.419Z,31.99
2024-01-17T02:59:29.092Z,31.88
2024-01-17T02:59:59.738Z,31.88
2024-01-17T03:00:30.430Z,31.88
2024-01-17T03:01:01.128Z,31.88
2024-01-17T03:01:31.733Z,31.88
2024-01-17T03:02:02.386Z,31.88
2024-01-17T03:02:33.067Z,31.88
2024-01-17T03:03:03.846Z,31.88
2024-01-17T03:03:34.638Z,31.88
2024-01-17T03:04:05.301Z,31.88
2024-01-17T03:04:35.956Z,31.99
2024-01-17T03:05:06.644Z,31.88
2024-01-17T03:05:37.316Z,31.99
2024-01-17T03:06:07.998Z,31.88
2024-01-17T03:06:38.697Z,31.99
2024-01-17T03:07:09.463Z,31.88
2024-01-17T03:07:40.168Z,31.90
2024-01-17T03:08:10.801Z,31.99
2024-01-17T03:08:41.541Z,31.99
2024-01-17T03:09:12.259Z,31.88
2024-01-17T03:09:42.910Z,31.99
2024-01-17T03:10:13.753Z,31.99
2024-01-17T03:10:44.452Z,31.99
2024-01-17T03:11:15.120Z,31.99
2024-01-17T03:11:45.809Z,31.99
2024-01-17T03:12:16.508Z,31.99
2024-01-17T03:12:47.155Z,31.99
2024-01-17T03:13:17.813Z,31.99
2024-01-17T03:13:48.461Z,31.88
2024-01-17T03:14:19.121Z,31.99
2024-01-17T03:14:49.806Z,31.99
2024-01-17T03:15:20.463Z,31.99
2024-01-17T03:15:51.082Z,31.99
2024-01-17T03:16:21.774Z,31.88
2024-01-17T03:16:52.454Z,31.88
2024-01-17T03:17:23.091Z,31.88
2024-01-17T03:17:53.852Z,31.88
2024-01-17T03:18:24.655Z,31.99
2024-01-17T03:18:55.638Z,31.88
2024-01-17T03:19:26.521Z,31.99
2024-01-17T03:19:57.208Z,31.99
2024-01-17T03:20:27.858Z,31.99
2024-01-17T03:20:58.560Z,31.99
2024-01-17T03:21:29.209Z,31.88
2024-01-17T03:21:59.821Z,31.88
2024-01-17T03:22:30.483Z,31.88
2024-01-17T03:23:01.106Z,31.88
2024-01-17T03:23:31.791Z,31.99
2024-01-17T03:24:02.660Z,31.99
2024-01-17T03:24:33.364Z,31.99
2024-01-17T03:25:04.018Z,31.88
2024-01-17T03:25:34.698Z,31.88
2024-01-17T03:26:05.332Z,31.99
2024-01-17T03:26:36.060Z,31.99
2024-01-17T03:27:06.869Z,31.88
2024-01-17T03:27:37.520Z,31.88
2024-01-17T03:28:08.173Z,31.88
2024-01-17T03:28:38.845Z,31.99
2024-01-17T03:29:09.462Z,31.99
2024-01-17T03:29:40.147Z,31.88
2024-01-17T03:30:10.847Z,31.99
2024-01-17T03:30:41.476Z,31.99
2024-01-17T03:31:12.185Z,31.99
2024-01-17T03:31:42.809Z,31.99
2024-01-17T03:32:13.451Z,31.99
2024-01-17T03:32:44.183Z,31.99
2024-01-17T03:33:14.980Z,31.88
2024-01-17T03:33:45.751Z,31.88
2024-01-17T03:34:16.394Z,31.99
2024-01-17T03:34:47.109Z,31.88
2024-01-17T03:35:17.754Z,31.78
2024-01-17T03:35:48.435Z,31.88
2024-01-17T03:36:19.119Z,31.88
2024-01-17T03:36:49.770Z,31.88
2024-01-17T03:37:20.422Z,31.88
2024-01-17T03:37:51.085Z,31.99
2024-01-17T03:38:21.715Z,31.99
2024-01-17T03:38:52.369Z,31.99
2024-01-17T03:39:22.980Z,31.88
2024-01-17T03:39:53.608Z,31.88
2024-01-17T03:40:24.259Z,31.88
2024-01-17T03:40:54.946Z,31.78
2024-01-17T03:41:25.589Z,31.88
2024-01-17T03:41:56.269Z,31.88
2024-01-17T03:42:26.903Z,31.88
2024-01-17T03:42:57.558Z,31.99
2024-01-17T03:43:28.225Z,31.88
2024-01-17T03:43:59.001Z,31.99
2024-01-17T03:44:29.662Z,31.99
2024-01-17T03:45:00.391Z,31.99
2024-01-17T03:45:31.102Z,32.09
2024-01-17T03:46:01.764Z,32.09
2024-01-17T03:46:32.387Z,31.99
2024-01-17T03:47:03.062Z,31.99
2024-01-17T03:47:33.748Z,31.99
2024-01-17T03:48:04.495Z,32.09
2024-01-17T03:48:35.305Z,31.99
2024-01-17T03:49:06.100Z,31.88
2024-01-17T03:49:36.744Z,31.88
2024-01-17T03:50:07.406Z,31.88
2024-01-17T03:50:38.183Z,31.99
2024-01-17T03:51:08.893Z,31.88
2024-01-17T03:51:39.543Z,31.99
2024-01-17T03:52:10.245Z,31.99
2024-01-17T03:52:40.860Z,31.99
2024-01-17T03:53:11.522Z,31.99
2024-01-17T03:53:42.190Z,31.99
2024-01-17T03:54:12.834Z,31.99
2024-01-17T03:54:43.449Z,31.99
2024-01-17T03:55:14.110Z,31.88
2024-01-17T03:55:44.733Z,31.99
2024-01-17T03:56:15.398Z,31.99
2024-01-17T03:56:46.027Z,31.99
2024-01-17T03:57:16.750Z,31.99
2024-01-17T03:57:47.404Z,31.99
2024-01-17T03:58:18.044Z,31.99
2024-01-17T03:58:48.703Z,31.99
2024-01-17T03:59:19.348Z,31.99
2024-01-17T03:59:50.112Z,31.88
2024-01-17T04:00:20.754Z,31.88
2024-01-17T04:00:51.431Z,31.88
2024-01-17T04:01:22.129Z,31.99
2024-01-17T04:01:52.754Z,31.88
2024-01-17T04:02:23.429Z,31.88
2024-01-17T04:02:54.119Z,31.88
2024-01-17T04:03:24.731Z,31.88
2024-01-17T04:03:55.390Z,31.88
2024-01-17T04:04:26.052Z,31.88
2024-01-17T04:04:56.805Z,31.78
2024-01-17T04:05:27.472Z,31.88
2024-01-17T04:05:58.137Z,31.88
2024-01-17T04:06:28.758Z,31.99
2024-01-17T04:06:59.435Z,31.88
2024-01-17T04:07:30.171Z,31.88
2024-01-17T04:08:00.768Z,31.88
2024-01-17T04:08:31.465Z,31.88
2024-01-17T04:09:02.194Z,31.88
2024-01-17T04:09:32.824Z,31.99
2024-01-17T04:10:03.485Z,31.88
2024-01-17T04:10:34.144Z,31.99
2024-01-17T04:11:04.790Z,31.99
2024-01-17T04:11:35.516Z,31.99
2024-01-17T04:12:06.331Z,31.99
2024-01-17T04:12:37.004Z,31.99
2024-01-17T04:13:07.646Z,31.88
2024-01-17T04:13:38.290Z,31.99
2024-01-17T04:14:08.979Z,31.99
2024-01-17T04:14:39.625Z,32.09
2024-01-17T04:15:10.431Z,31.99
2024-01-17T04:15:41.048Z,31.99
2024-01-17T04:16:11.695Z,31.88
2024-01-17T04:16:42.341Z,31.99
2024-01-17T04:17:13.009Z,31.88
2024-01-17T04:17:43.815Z,31.88
2024-01-17T04:18:14.614Z,31.88
2024-01-17T04:18:45.501Z,31.99
2024-01-17T04:19:16.214Z,31.99
2024-01-17T04:19:46.854Z,31.88
2024-01-17T04:20:17.464Z,31.99
2024-01-17T04:20:48.198Z,31.88
2024-01-17T04:21:18.837Z,31.88
2024-01-17T04:21:49.541Z,31.88
2024-01-17T04:22:20.161Z,31.88
2024-01-17T04:22:50.847Z,31.88
2024-01-17T04:23:21.501Z,31.99
2024-01-17T04:23:52.170Z,31.99
2024-01-17T04:24:22.783Z,31.88
2024-01-17T04:24:53.410Z,31.88
2024-01-17T04:25:24.063Z,31.99
2024-01-17T04:25:54.715Z,31.99
2024-01-17T04:26:25.435Z,31.99
2024-01-17T04:26:56.148Z,31.99
2024-01-17T04:27:26.739Z,31.99
2024-01-17T04:27:57.422Z,31.99
2024-01-17T04:28:28.069Z,31.88
2024-01-17T04:28:58.719Z,31.99
2024-01-17T04:29:29.413Z,31.99
2024-01-17T04:30:00.086Z,31.99
2024-01-17T04:30:30.778Z,31.99
2024-01-17T04:31:01.418Z,31.99
2024-01-17T04:31:32.033Z,31.99
2024-01-17T04:32:02.666Z,31.99
2024-01-17T04:32:33.374Z,31.99
2024-01-17T04:33:04.268Z,32.09
2024-01-17T04:33:34.718Z,32.09
2024-01-17T04:34:05.626Z,31.99
2024-01-17T04:34:36.362Z,31.99
2024-01-17T04:35:06.999Z,31.99
2024-01-17T04:35:37.628Z,32.09
2024-01-17T04:36:08.368Z,31.99
2024-01-17T04:36:38.990Z,31.88
2024-01-17T04:37:09.652Z,31.99
2024-01-17T04:37:40.298Z,31.99
2024-01-17T04:38:10.963Z,31.88
2024-01-17T04:38:41.645Z,31.99
2024-01-17T04:39:12.315Z,31.88
2024-01-17T04:39:42.943Z,31.88
2024-01-17T04:40:13.573Z,31.88
2024-01-17T04:40:44.205Z,31.88
2024-01-17T04:41:14.853Z,31.99
2024-01-17T04:41:45.494Z,32.09
2024-01-17T04:42:16.181Z,31.99
2024-01-17T04:42:46.779Z,31.99
2024-01-17T04:43:17.605Z,31.99
2024-01-17T04:43:48.285Z,32.09
2024-01-17T04:44:18.922Z,31.99
2024-01-17T04:44:49.616Z,31.99
2024-01-17T04:45:20.246Z,31.99
2024-01-17T04:45:50.891Z,31.99
2024-01-17T04:46:21.534Z,31.99
2024-01-17T04:46:52.172Z,31.99
2024-01-17T04:47:22.820Z,31.99
2024-01-17T04:47:53.668Z,31.99
2024-01-17T04:48:24.597Z,31.99
2024-01-17T04:48:55.029Z,31.99
2024-01-17T04:49:25.805Z,31.99
2024-01-17T04:49:56.792Z,32.09
2024-01-17T04:50:27.753Z,32.19
2024-01-17T04:50:58.460Z,32.09
2024-01-17T04:51:29.160Z,31.99
2024-01-17T04:51:59.823Z,31.99
2024-01-17T04:52:30.441Z,31.99
2024-01-17T04:53:01.109Z,31.99
2024-01-17T04:53:31.788Z,31.88
2024-01-17T04:54:02.483Z,31.88
2024-01-17T04:54:33.084Z,31.88
2024-01-17T04:55:03.730Z,31.99
2024-01-17T04:55:34.411Z,31.99
2024-01-17T04:56:05.047Z,31.99
2024-01-17T04:56:35.707Z,31.99
2024-01-17T04:57:06.360Z,31.99
2024-01-17T04:57:37.007Z,31.99
2024-01-17T04:58:07.728Z,31.99
2024-01-17T04:58:38.516Z,31.99
2024-01-17T04:59:09.166Z,32.09
2024-01-17T04:59:39.857Z,31.99
2024-01-17T05:00:10.485Z,31.99
2024-01-17T05:00:41.151Z,31.99
2024-01-17T05:01:11.789Z,31.99
2024-01-17T05:01:42.438Z,31.99
2024-01-17T05:02:13.079Z,31.99
2024-01-17T05:02:43.796Z,31.99
2024-01-17T05:03:14.424Z,32.29
2024-01-17T05:03:45.099Z,32.39
2024-01-17T05:04:15.738Z,32.29
2024-01-17T05:04:46.425Z,32.29
2024-01-17T05:05:17.069Z,32.09
2024-01-17T05:05:47.755Z,32.17
2024-01-17T05:06:18.581Z,32.19
2024-01-17T05:06:49.420Z,32.09
2024-01-17T05:07:20.095Z,31.97
2024-01-17T05:07:50.748Z,32.07
2024-01-17T05:08:21.375Z,31.99
2024-01-17T05:08:52.063Z,31.87
2024-01-17T05:09:22.684Z,31.97
2024-01-17T05:09:53.287Z,31.97
2024-01-17T05:10:23.942Z,31.97
2024-01-17T05:10:54.660Z,31.97
2024-01-17T05:11:25.314Z,31.97
2024-01-17T05:11:55.962Z,32.07
2024-01-17T05:12:26.603Z,32.07
2024-01-17T05:12:57.238Z,32.17
2024-01-17T05:13:27.896Z,32.17
2024-01-17T05:13:58.605Z,32.07
2024-01-17T05:14:29.438Z,32.07
2024-01-17T05:15:00.115Z,31.97
2024-01-17T05:15:30.730Z,31.97
2024-01-17T05:16:01.385Z,31.97
2024-01-17T05:16:32.045Z,31.87
2024-01-17T05:17:02.821Z,31.87
2024-01-17T05:17:33.592Z,31.97
2024-01-17T05:18:04.583Z,31.87
2024-01-17T05:18:34.894Z,31.87
2024-01-17T05:19:05.709Z,31.77
2024-01-17T05:19:36.498Z,32.17
2024-01-17T05:20:07.220Z,32.07
2024-01-17T05:20:37.861Z,32.07
2024-01-17T05:21:08.587Z,31.97
2024-01-17T05:21:39.209Z,31.97
2024-01-17T05:22:09.859Z,31.87
2024-01-17T05:22:40.543Z,31.87
2024-01-17T05:23:11.197Z,31.87
2024-01-17T05:23:41.905Z,31.87
2024-01-17T05:24:12.675Z,31.97
2024-01-17T05:24:43.325Z,32.17
2024-01-17T05:25:13.991Z,32.17
2024-01-17T05:25:44.635Z,32.07
2024-01-17T05:26:15.346Z,32.07
2024-01-17T05:26:46.002Z,31.97
2024-01-17T05:27:16.679Z,31.97
2024-01-17T05:27:47.277Z,31.97
2024-01-17T05:28:17.935Z,31.97
2024-01-17T05:28:48.611Z,31.97
2024-01-17T05:29:19.310Z,32.17
2024-01-17T05:29:50.017Z,32.07
2024-01-17T05:30:20.830Z,32.07
2024-01-17T05:30:51.619Z,31.97
2024-01-17T05:31:22.351Z,32.07
2024-01-17T05:31:53.113Z,31.97
2024-01-17T05:32:23.779Z,32.07
2024-01-17T05:32:54.466Z,32.17
2024-01-17T05:33:25.307Z,32.07
2024-01-17T05:33:56.126Z,32.07
2024-01-17T05:34:26.898Z,32.28
2024-01-17T05:34:57.518Z,32.28
2024-01-17T05:35:28.932Z,32.28
2024-01-17T05:35:59.218Z,32.68
2024-01-17T05:36:32.738Z,32.48
2024-01-17T05:37:00.718Z,32.28
2024-01-17T05:37:31.387Z,32.58
2024-01-17T05:38:02.099Z,32.58
2024-01-17T05:38:32.733Z,32.78
2024-01-17T05:39:03.394Z,32.78
2024-01-17T05:39:34.158Z,32.78
2024-01-17T05:40:04.798Z,32.68
2024-01-17T05:40:35.455Z,32.68
2024-01-17T05:41:05.999Z,32.78
2024-01-17T05:41:36.682Z,32.58
2024-01-17T05:42:07.388Z,32.58
2024-01-17T05:42:37.820Z,32.58
2024-01-17T05:43:08.472Z,32.48
2024-01-17T05:43:39.117Z,32.58
2024-01-17T05:44:11.455Z,32.58
2024-01-17T05:44:40.860Z,32.68
2024-01-17T05:45:11.804Z,32.68
2024-01-17T05:45:42.458Z,32.48
2024-01-17T05:46:14.658Z,32.38
2024-01-17T05:46:43.892Z,32.38
2024-01-17T05:47:14.538Z,32.48
2024-01-17T05:47:45.355Z,32.48
2024-01-17T05:48:16.139Z,32.48
2024-01-17T05:48:46.941Z,32.48
2024-01-17T05:49:17.692Z,32.48
2024-01-17T05:49:48.406Z,32.48
2024-01-17T05:50:19.030Z,32.48
2024-01-17T05:50:49.734Z,32.58
2024-01-17T05:51:20.445Z,32.68
2024-01-17T05:51:51.135Z,32.68
2024-01-17T05:52:21.761Z,32.58
2024-01-17T05:52:52.422Z,32.68
2024-01-17T05:53:23.081Z,32.68
2024-01-17T05:53:53.756Z,32.68
2024-01-17T05:54:24.401Z,32.58
2024-01-17T05:54:55.093Z,32.68
2024-01-17T05:55:25.718Z,32.68
2024-01-17T05:55:56.363Z,32.78
2024-01-17T05:56:27.027Z,32.68
2024-01-17T05:56:57.652Z,32.88
2024-01-17T05:57:28.294Z,32.58
2024-01-17T05:57:58.992Z,32.58
2024-01-17T05:58:29.619Z,32.56
2024-01-17T05:59:00.285Z,32.58
2024-01-17T05:59:30.919Z,32.46
2024-01-17T06:00:01.698Z,32.46
2024-01-17T06:00:32.443Z,32.46
2024-01-17T06:01:03.093Z,32.56
2024-01-17T06:01:33.728Z,32.46
2024-01-17T06:02:04.365Z,32.46
2024-01-17T06:02:35.022Z,32.56
2024-01-17T06:03:05.732Z,32.36
2024-01-17T06:03:36.388Z,32.36
2024-01-17T06:04:07.103Z,32.46
2024-01-17T06:04:37.720Z,32.56
2024-01-17T06:05:08.437Z,32.67
2024-01-17T06:05:39.108Z,32.56
2024-01-17T06:06:09.836Z,32.56
2024-01-17T06:06:40.612Z,32.67
2024-01-17T06:07:11.245Z,32.76
2024-01-17T06:07:41.978Z,32.87
2024-01-17T06:08:12.732Z,32.87
2024-01-17T06:08:44.872Z,32.67
2024-01-17T06:09:14.220Z,32.76
2024-01-17T06:09:44.880Z,32.76
2024-01-17T06:10:15.684Z,32.87
2024-01-17T06:10:46.040Z,32.97
2024-01-17T06:11:16.691Z,32.87
2024-01-17T06:11:47.441Z,33.07
2024-01-17T06:12:18.058Z,33.47
2024-01-17T06:12:48.709Z,33.27
2024-01-17T06:13:19.362Z,33.37
2024-01-17T06:13:50.001Z,33.37
2024-01-17T06:14:20.647Z,33.47
2024-01-17T06:14:51.329Z,33.27
2024-01-17T06:15:22.004Z,33.27
2024-01-17T06:15:52.759Z,33.27
2024-01-17T06:16:23.419Z,33.27
2024-01-17T06:16:54.053Z,33.17
2024-01-17T06:17:24.730Z,33.07
2024-01-17T06:17:55.400Z,33.17
2024-01-17T06:18:26.145Z,32.97
2024-01-17T06:18:56.893Z,32.97
2024-01-17T06:19:27.493Z,33.58
2024-01-17T06:19:58.030Z,33.67
2024-01-17T06:20:28.684Z,33.47
2024-01-17T06:20:59.252Z,33.37
2024-01-17T06:21:30.820Z,33.47
2024-01-17T06:22:00.646Z,33.37
2024-01-17T06:22:31.173Z,33.27
2024-01-17T06:23:01.736Z,33.27
2024-01-17T06:23:32.284Z,33.27
2024-01-17T06:24:03.054Z,33.37
2024-01-17T06:24:33.607Z,33.37
2024-01-17T06:25:04.167Z,33.58
2024-01-17T06:25:34.761Z,33.58
2024-01-17T06:26:05.391Z,33.58
2024-01-17T06:26:35.930Z,33.58
2024-01-17T06:27:06.795Z,33.58
2024-01-17T06:27:36.957Z,33.58
2024-01-17T06:28:07.503Z,33.58
2024-01-17T06:28:38.077Z,33.67
2024-01-17T06:29:08.584Z,33.67
2024-01-17T06:29:39.153Z,33.67
2024-01-17T06:30:09.987Z,33.78
2024-01-17T06:30:40.762Z,33.67
2024-01-17T06:31:11.319Z,33.88
2024-01-17T06:31:41.859Z,33.88
2024-01-17T06:32:12.428Z,33.98
2024-01-17T06:32:43.053Z,33.88
2024-01-17T06:33:13.822Z,33.88
2024-01-17T06:33:44.530Z,33.97
2024-01-17T06:34:15.188Z,33.86
2024-01-17T06:34:45.769Z,33.86